createdAt,value
2019-06-11T00:00:15.670Z,87.33
2019-06-11T00:01:17.282Z,87.90
2019-06-11T00:02:29.975Z,87.90
2019-06-11T00:03:28.303Z,87.52
2019-06-11T00:04:33.822Z,87.71
2019-06-11T00:05:39.341Z,87.42
2019-06-11T00:06:44.866Z,88.00
2019-06-11T00:07:53.275Z,87.52
2019-06-11T00:08:56.724Z,87.71
2019-06-11T00:10:06.430Z,87.71
2019-06-11T00:11:09.154Z,87.42
2019-06-11T00:12:12.712Z,87.23
2019-06-11T00:13:17.949Z,87.71
2019-06-11T00:14:23.468Z,87.81
2019-06-11T00:15:28.997Z,87.42
2019-06-11T00:16:34.508Z,87.71
2019-06-11T00:17:42.028Z,87.33
2019-06-11T00:18:45.524Z,87.42
2019-06-11T00:19:53.299Z,87.33
2019-06-11T00:20:56.629Z,86.94
2019-06-11T00:22:04.771Z,86.85
2019-06-11T00:23:07.595Z,87.23
2019-06-11T00:24:13.102Z,86.85
2019-06-11T00:25:18.629Z,86.75
2019-06-11T00:26:24.134Z,86.94
2019-06-11T00:27:29.659Z,86.75
2019-06-11T00:28:35.168Z,86.56
2019-06-11T00:29:42.904Z,86.27
2019-06-11T00:30:46.204Z,86.27
2019-06-11T00:31:53.226Z,86.36
2019-06-11T00:32:57.415Z,86.46
2019-06-11T00:34:04.753Z,86.36
2019-06-11T00:35:08.258Z,86.46
2019-06-11T00:36:13.771Z,86.08
2019-06-11T00:37:19.294Z,86.46
2019-06-11T00:38:24.810Z,86.46
2019-06-11T00:39:32.746Z,86.27
2019-06-11T00:40:35.837Z,86.27
2019-06-11T00:41:42.608Z,85.50
2019-06-11T00:42:46.871Z,85.69
2019-06-11T00:43:53.443Z,86.08
2019-06-11T00:44:58.134Z,85.98
2019-06-11T00:46:06.603Z,85.78
2019-06-11T00:47:09.318Z,85.98
2019-06-11T00:48:14.449Z,85.31
2019-06-11T00:49:19.972Z,85.31
2019-06-11T00:50:25.482Z,85.98
2019-06-11T00:51:32.572Z,86.18
2019-06-11T00:52:36.519Z,85.78
2019-06-11T00:53:43.252Z,85.50
2019-06-11T00:54:47.547Z,85.88
2019-06-11T00:55:53.180Z,85.69
2019-06-11T00:56:59.348Z,86.08
2019-06-11T00:58:05.564Z,85.50
2019-06-11T00:59:12.315Z,85.40
2019-06-11T01:00:21.445Z,85.60
2019-06-11T01:01:22.481Z,85.40
2019-06-11T01:02:39.475Z,85.31
2019-06-11T01:03:32.795Z,85.50
2019-06-11T01:04:37.214Z,85.60
2019-06-11T01:05:43.507Z,85.50
2019-06-11T01:06:48.224Z,85.98
2019-06-11T01:07:53.734Z,85.50
2019-06-11T01:09:00.737Z,85.50
2019-06-11T01:10:06.858Z,85.11
2019-06-11T01:11:13.421Z,85.31
2019-06-11T01:12:15.795Z,84.92
2019-06-11T01:13:22.983Z,85.21
2019-06-11T01:14:26.833Z,84.83
2019-06-11T01:15:32.348Z,85.02
2019-06-11T01:16:37.861Z,85.78
2019-06-11T01:17:43.381Z,85.60
2019-06-11T01:18:48.889Z,85.02
2019-06-11T01:19:54.408Z,85.02
2019-06-11T01:21:03.031Z,84.92
2019-06-11T01:22:07.489Z,85.02
2019-06-11T01:23:13.154Z,84.34
2019-06-11T01:24:16.477Z,84.34
2019-06-11T01:25:23.790Z,85.02
2019-06-11T01:26:27.498Z,84.92
2019-06-11T01:27:33.021Z,85.02
2019-06-11T01:28:38.538Z,83.96
2019-06-11T01:29:44.048Z,83.48
2019-06-11T01:30:49.574Z,84.11
2019-06-11T01:31:55.079Z,84.01
2019-06-11T01:33:04.699Z,84.34
2019-06-11T01:34:08.854Z,84.21
2019-06-11T01:35:14.315Z,84.11
2019-06-11T01:36:17.138Z,83.34
2019-06-11T01:37:22.867Z,83.73
2019-06-11T01:38:28.168Z,83.34
2019-06-11T01:39:33.685Z,83.44
2019-06-11T01:40:39.202Z,83.44
2019-06-11T01:41:44.719Z,83.73
2019-06-11T01:42:52.494Z,83.92
2019-06-11T01:43:55.749Z,83.73
2019-06-11T01:45:03.208Z,83.44
2019-06-11T01:46:06.900Z,83.44
2019-06-11T01:47:13.722Z,84.11
2019-06-11T01:48:17.815Z,84.11
2019-06-11T01:49:23.331Z,84.01
2019-06-11T01:50:28.852Z,83.73
2019-06-11T01:51:34.355Z,84.01
2019-06-11T01:52:39.884Z,84.50
2019-06-11T01:53:45.391Z,84.50
2019-06-11T01:54:52.446Z,84.50
2019-06-11T01:55:56.421Z,84.40
2019-06-11T01:57:03.143Z,84.11
2019-06-11T01:58:08.166Z,84.21
2019-06-11T01:59:15.805Z,84.88
2019-06-11T02:00:25.329Z,84.59
2019-06-11T02:01:26.901Z,84.21
2019-06-11T02:02:29.514Z,84.50
2019-06-11T02:03:41.158Z,84.59
2019-06-11T02:04:42.445Z,85.07
2019-06-11T02:05:46.060Z,84.30
2019-06-11T02:06:53.192Z,84.88
2019-06-11T02:07:57.085Z,84.50
2019-06-11T02:09:03.108Z,84.69
2019-06-11T02:10:08.128Z,84.98
2019-06-11T02:11:15.965Z,84.88
2019-06-11T02:12:19.155Z,84.88
2019-06-11T02:13:24.673Z,85.07
2019-06-11T02:14:32.649Z,85.55
2019-06-11T02:15:35.709Z,85.46
2019-06-11T02:16:42.678Z,85.36
2019-06-11T02:17:46.725Z,85.84
2019-06-11T02:18:53.002Z,86.22
2019-06-11T02:19:57.758Z,86.42
2019-06-11T02:21:04.632Z,86.32
2019-06-11T02:22:08.796Z,86.80
2019-06-11T02:23:16.945Z,87.09
2019-06-11T02:24:19.820Z,87.48
2019-06-11T02:25:25.332Z,87.38
2019-06-11T02:26:32.673Z,87.67
2019-06-11T02:27:36.365Z,87.76
2019-06-11T02:28:42.289Z,87.67
2019-06-11T02:29:47.414Z,88.06
2019-06-11T02:31:00.733Z,88.06
2019-06-11T02:31:58.427Z,87.67
2019-06-11T02:33:03.943Z,88.06
2019-06-11T02:35:42.582Z,88.63
2019-06-11T02:36:30.392Z,88.92
2019-06-11T02:37:28.941Z,89.01
2019-06-11T02:38:32.868Z,88.20
2019-06-11T02:39:37.051Z,88.39
2019-06-11T02:40:42.563Z,88.87
2019-06-11T02:41:51.513Z,89.16
2019-06-11T02:42:53.576Z,88.87
2019-06-11T02:44:02.547Z,88.68
2019-06-11T02:45:04.613Z,88.97
2019-06-11T02:46:14.627Z,89.16
2019-06-11T02:47:23.378Z,89.54
2019-06-11T02:48:27.615Z,89.26
2019-06-11T02:49:28.247Z,89.26
2019-06-11T02:50:34.052Z,89.54
2019-06-11T02:51:37.704Z,90.03
2019-06-11T02:52:43.220Z,89.74
2019-06-11T02:53:51.263Z,90.03
2019-06-11T02:54:54.260Z,90.41
2019-06-11T02:56:01.764Z,89.74
2019-06-11T02:57:05.278Z,90.51
2019-06-11T02:58:15.231Z,89.83
2019-06-11T02:59:23.042Z,90.51
2019-06-11T03:00:33.345Z,90.31
2019-06-11T03:01:32.857Z,91.08
2019-06-11T03:02:35.121Z,90.51
2019-06-11T03:03:42.326Z,90.03
2019-06-11T03:04:54.532Z,90.41
2019-06-11T03:05:52.051Z,91.08
2019-06-11T03:06:54.925Z,90.22
2019-06-11T03:08:01.828Z,90.22
2019-06-11T03:09:05.943Z,90.89
2019-06-11T03:10:16.068Z,90.80
2019-06-11T03:11:22.284Z,90.89
2019-06-11T03:12:27.393Z,90.99
2019-06-11T03:13:32.382Z,90.99
2019-06-11T03:14:36.764Z,90.80
2019-06-11T03:15:42.167Z,91.28
2019-06-11T03:16:44.892Z,90.89
2019-06-11T03:17:51.870Z,90.89
2019-06-11T03:18:55.637Z,90.70
2019-06-11T03:20:01.836Z,91.37
2019-06-11T03:21:06.619Z,91.37
2019-06-11T03:22:14.793Z,90.89
2019-06-11T03:23:19.277Z,90.70
2019-06-11T03:24:28.971Z,90.80
2019-06-11T03:25:34.440Z,90.22
2019-06-11T03:26:35.567Z,90.99
2019-06-11T03:27:42.324Z,90.80
2019-06-11T03:28:45.215Z,90.99
2019-06-11T03:29:52.445Z,90.17
2019-06-11T03:31:43.297Z,90.75
2019-06-11T03:34:39.462Z,91.23
2019-06-11T03:36:59.884Z,90.99
2019-06-11T03:38:06.170Z,91.28
2019-06-11T03:38:58.134Z,91.28
2019-06-11T03:39:50.771Z,90.99
2019-06-11T03:40:45.878Z,91.08
2019-06-11T03:41:52.398Z,90.80
2019-06-11T03:42:56.904Z,90.99
2019-06-11T03:44:02.436Z,89.83
2019-06-11T03:45:11.085Z,90.12
2019-06-11T03:46:15.521Z,90.60
2019-06-11T03:47:25.156Z,90.31
2019-06-11T03:48:29.372Z,90.31
2019-06-11T03:49:35.200Z,90.12
2019-06-11T03:50:35.521Z,91.08
2019-06-11T03:51:42.298Z,90.51
2019-06-11T03:52:46.544Z,89.74
2019-06-11T03:53:52.067Z,89.26
2019-06-11T03:54:57.580Z,90.12
2019-06-11T03:56:03.109Z,89.93
2019-06-11T03:57:11.690Z,89.74
2019-06-11T03:58:15.141Z,89.74
2019-06-11T03:59:25.866Z,90.51
2019-06-11T04:00:39.629Z,90.41
2019-06-11T04:01:37.312Z,90.12
2019-06-11T04:02:36.312Z,90.60
2019-06-11T04:03:42.906Z,90.22
2019-06-11T04:04:47.210Z,90.31
2019-06-11T04:05:52.733Z,90.80
2019-06-11T04:07:10.907Z,90.41
2019-06-11T04:08:03.778Z,90.99
2019-06-11T04:09:11.581Z,91.08
2019-06-11T04:10:16.271Z,90.94
2019-06-11T04:11:24.705Z,91.71
2019-06-11T04:12:29.764Z,91.42
2019-06-11T04:13:34.960Z,91.52
2019-06-11T04:14:36.850Z,91.33
2019-06-11T04:15:42.363Z,91.61
2019-06-11T04:17:07.254Z,91.52
2019-06-11T04:17:59.224Z,92.48
2019-06-11T04:19:01.478Z,91.81
2019-06-11T04:20:04.421Z,92.19
2019-06-11T04:21:11.986Z,92.57
2019-06-11T04:22:16.920Z,92.67
2019-06-11T04:23:27.588Z,93.05
2019-06-11T04:24:31.859Z,92.77
2019-06-11T04:25:34.950Z,93.05
2019-06-11T04:26:38.691Z,93.15
2019-06-11T04:27:43.019Z,93.54
2019-06-11T04:28:51.708Z,93.63
2019-06-11T04:29:54.061Z,93.44
2019-06-11T04:31:03.162Z,93.44
2019-06-11T04:32:05.105Z,94.01
2019-06-11T04:33:11.643Z,93.63
2019-06-11T04:34:19.521Z,94.01
2019-06-11T04:35:25.243Z,94.11
2019-06-11T04:36:31.988Z,94.11
2019-06-11T04:37:55.634Z,94.69
2019-06-11T04:38:45.990Z,94.59
2019-06-11T04:39:43.694Z,94.69
2019-06-11T04:40:52.279Z,94.64
2019-06-11T04:41:54.729Z,94.93
2019-06-11T04:43:01.987Z,95.41
2019-06-11T04:44:05.759Z,95.45
2019-06-11T04:45:11.263Z,95.07
2019-06-11T04:46:18.388Z,95.03
2019-06-11T04:47:35.787Z,94.74
2019-06-11T04:48:33.892Z,94.64
2019-06-11T04:49:38.035Z,95.03
2019-06-11T04:50:41.682Z,95.41
2019-06-11T04:51:44.357Z,95.21
2019-06-11T04:52:51.597Z,95.60
2019-06-11T04:53:55.383Z,95.12
2019-06-11T04:55:01.769Z,94.83
2019-06-11T04:56:06.427Z,94.35
2019-06-11T04:57:12.530Z,93.97
2019-06-11T04:58:19.900Z,94.83
2019-06-11T04:59:28.457Z,94.74
2019-06-11T05:01:06.940Z,94.83
2019-06-11T05:04:21.137Z,95.50
2019-06-11T05:04:44.300Z,95.89
2019-06-11T05:05:02.984Z,95.41
2019-06-11T05:05:56.045Z,95.89
2019-06-11T05:07:01.566Z,95.60
2019-06-11T05:08:11.866Z,96.37
2019-06-11T05:09:12.597Z,96.56
2019-06-11T05:10:20.532Z,96.47
2019-06-11T05:11:31.887Z,96.66
2019-06-11T05:12:34.534Z,96.56
2019-06-11T05:13:36.694Z,96.75
2019-06-11T05:14:51.404Z,95.89
2019-06-11T05:15:45.674Z,95.70
2019-06-11T05:16:52.396Z,95.89
2019-06-11T05:17:56.700Z,95.31
2019-06-11T05:19:02.473Z,95.60
2019-06-11T05:20:07.733Z,95.70
2019-06-11T05:21:13.568Z,96.27
2019-06-11T05:22:25.422Z,95.70
2019-06-11T05:23:30.138Z,95.31
2019-06-11T05:24:33.685Z,96.18
2019-06-11T05:25:52.183Z,94.93
2019-06-11T05:26:42.468Z,95.70
2019-06-11T05:27:46.343Z,96.08
2019-06-11T05:28:51.865Z,96.47
2019-06-11T05:29:57.384Z,96.18
2019-06-11T05:31:02.886Z,96.27
2019-06-11T05:32:11.211Z,96.56
2019-06-11T05:33:13.911Z,95.50
2019-06-11T05:34:21.048Z,95.41
2019-06-11T05:35:28.369Z,95.50
2019-06-11T05:36:35.087Z,95.60
2019-06-11T05:37:59.999Z,95.79
2019-06-11T05:38:46.811Z,95.50
2019-06-11T05:39:47.005Z,96.27
2019-06-11T05:40:52.517Z,96.47
2019-06-11T05:41:58.028Z,96.51
2019-06-11T05:43:03.544Z,95.79
2019-06-11T05:44:11.319Z,95.50
2019-06-11T05:45:14.573Z,95.12
2019-06-11T05:46:25.878Z,94.98
2019-06-11T05:47:26.963Z,94.74
2019-06-11T05:48:34.963Z,94.74
2019-06-11T05:49:36.629Z,94.59
2019-06-11T05:50:42.147Z,94.54
2019-06-11T05:51:47.665Z,95.65
2019-06-11T05:52:53.178Z,95.55
2019-06-11T05:54:00.760Z,95.75
2019-06-11T05:55:04.216Z,95.55
2019-06-11T05:56:11.181Z,95.55
2019-06-11T05:57:15.238Z,95.84
2019-06-11T05:58:22.452Z,95.84
2019-06-11T05:59:27.794Z,95.75
2019-06-11T06:00:40.550Z,95.65
2019-06-11T06:01:51.402Z,95.17
2019-06-11T06:02:42.809Z,94.88
2019-06-11T06:03:50.878Z,95.07
2019-06-11T06:04:53.839Z,94.98
2019-06-11T06:06:02.334Z,94.69
2019-06-11T06:07:04.874Z,95.26
2019-06-11T06:08:18.609Z,94.88
2019-06-11T06:09:15.907Z,94.45
2019-06-11T06:10:22.064Z,94.78
2019-06-11T06:11:28.517Z,94.78
2019-06-11T06:12:32.565Z,94.98
2019-06-11T06:13:37.966Z,94.98
2019-06-11T06:14:43.471Z,94.78
2019-06-11T06:15:51.494Z,94.98
2019-06-11T06:16:54.491Z,95.36
2019-06-11T06:18:01.088Z,95.75
2019-06-11T06:19:05.523Z,95.17
2019-06-11T06:20:11.068Z,95.65
2019-06-11T06:21:16.558Z,95.17
2019-06-11T06:22:22.077Z,95.65
2019-06-11T06:23:28.382Z,95.17
2019-06-11T06:24:40.333Z,95.03
2019-06-11T06:25:42.106Z,94.83
2019-06-11T06:26:44.126Z,95.60
2019-06-11T06:27:51.196Z,95.79
2019-06-11T06:28:55.166Z,95.45
2019-06-11T06:30:01.156Z,95.07
2019-06-11T06:31:06.185Z,94.88
2019-06-11T06:32:11.696Z,94.83
2019-06-11T06:33:17.234Z,94.01
2019-06-11T06:34:23.256Z,94.07
2019-06-11T06:35:29.143Z,94.64
2019-06-11T06:36:35.321Z,95.17
2019-06-11T06:37:40.166Z,95.36
2019-06-11T06:38:48.952Z,95.65
2019-06-11T06:39:50.743Z,95.26
2019-06-11T06:40:55.837Z,94.88
2019-06-11T06:42:01.346Z,93.68
2019-06-11T06:43:06.852Z,92.91
2019-06-11T06:44:12.361Z,93.77
2019-06-11T06:45:20.311Z,93.92
2019-06-11T06:46:23.659Z,93.97
2019-06-11T06:47:31.907Z,93.63
2019-06-11T06:48:36.703Z,93.54
2019-06-11T06:49:40.262Z,93.01
2019-06-11T06:50:45.448Z,93.15
2019-06-11T06:51:51.059Z,92.67
2019-06-11T06:52:56.472Z,93.30
2019-06-11T06:54:01.992Z,94.01
2019-06-11T06:55:07.511Z,94.40
2019-06-11T06:56:13.022Z,93.73
2019-06-11T06:57:20.771Z,94.11
2019-06-11T06:58:25.098Z,93.92
2019-06-11T06:59:33.227Z,94.21
2019-06-11T07:00:37.953Z,93.82
2019-06-11T07:01:41.875Z,94.21
2019-06-11T07:02:46.132Z,93.92
2019-06-11T07:03:52.569Z,94.21
2019-06-11T07:04:57.141Z,94.40
2019-06-11T07:06:02.653Z,94.21
2019-06-11T07:07:08.181Z,94.11
2019-06-11T07:08:13.689Z,93.63
2019-06-11T07:09:21.385Z,92.19
2019-06-11T07:10:24.728Z,92.48
2019-06-11T07:11:32.089Z,92.19
2019-06-11T07:12:36.914Z,92.00
2019-06-11T07:13:42.664Z,93.44
2019-06-11T07:14:46.779Z,93.25
2019-06-11T07:15:52.286Z,92.67
2019-06-11T07:17:04.071Z,92.48
2019-06-11T07:18:03.315Z,92.67
2019-06-11T07:19:10.993Z,92.96
2019-06-11T07:20:14.343Z,93.15
2019-06-11T07:21:21.586Z,93.34
2019-06-11T07:22:25.373Z,92.96
2019-06-11T07:23:36.051Z,92.86
2019-06-11T07:24:39.072Z,92.86
2019-06-11T07:25:44.443Z,92.48
2019-06-11T07:26:47.436Z,91.61
2019-06-11T07:27:52.948Z,92.38
2019-06-11T07:28:58.475Z,93.05
2019-06-11T07:30:06.130Z,93.15
2019-06-11T07:31:12.086Z,94.01
2019-06-11T07:32:15.013Z,93.34
2019-06-11T07:33:20.622Z,91.90
2019-06-11T07:34:26.050Z,92.19
2019-06-11T07:35:34.134Z,92.10
2019-06-11T07:36:40.690Z,92.10
2019-06-11T07:37:44.275Z,92.19
2019-06-11T07:39:00.175Z,92.57
2019-06-11T07:39:53.607Z,93.05
2019-06-11T07:41:01.694Z,93.54
2019-06-11T07:42:04.641Z,93.92
2019-06-11T07:43:11.120Z,94.31
2019-06-11T07:44:15.686Z,93.73
2019-06-11T07:45:21.401Z,94.21
2019-06-11T07:46:36.093Z,93.82
2019-06-11T07:47:34.105Z,94.21
2019-06-11T07:48:47.773Z,94.31
2019-06-11T07:49:46.698Z,92.10
2019-06-11T07:50:52.157Z,91.33
2019-06-11T07:51:54.272Z,90.99
2019-06-11T07:53:01.569Z,92.10
2019-06-11T07:54:05.305Z,92.43
2019-06-11T07:55:11.813Z,91.81
2019-06-11T07:56:16.342Z,91.47
2019-06-11T07:57:21.894Z,91.08
2019-06-11T07:58:27.375Z,90.60
2019-06-11T07:59:34.732Z,90.12
2019-06-11T08:00:42.053Z,88.87
2019-06-11T08:01:50.788Z,88.59
2019-06-11T08:02:52.299Z,87.72
2019-06-11T08:03:54.934Z,87.34
2019-06-11T08:05:01.490Z,87.43
2019-06-11T08:06:05.969Z,87.43
2019-06-11T08:07:12.275Z,87.92
2019-06-11T08:08:16.997Z,88.20
2019-06-11T08:09:45.843Z,88.20
2019-06-11T08:10:34.876Z,87.43
2019-06-11T08:12:48.910Z,87.72
2019-06-11T08:14:55.865Z,87.62
2019-06-11T08:17:03.246Z,88.10
2019-06-11T08:18:06.647Z,87.53
2019-06-11T08:19:15.516Z,88.01
2019-06-11T08:19:33.075Z,88.20
2019-06-11T08:20:54.610Z,88.39
2019-06-11T08:21:47.848Z,88.10
2019-06-11T08:22:33.717Z,88.10
2019-06-11T08:24:06.720Z,87.82
2019-06-11T08:24:56.136Z,88.39
2019-06-11T08:26:34.836Z,88.39
2019-06-11T08:26:45.635Z,87.34
2019-06-11T08:26:57.757Z,88.20
2019-06-11T08:27:28.416Z,87.09
2019-06-11T08:28:08.263Z,86.57
2019-06-11T08:29:01.797Z,86.57
2019-06-11T08:30:07.325Z,85.46
2019-06-11T08:31:12.820Z,85.55
2019-06-11T08:32:20.467Z,84.36
2019-06-11T08:33:23.847Z,84.55
2019-06-11T08:34:31.042Z,85.71
2019-06-11T08:35:36.022Z,86.28
2019-06-11T08:36:41.779Z,85.65
2019-06-11T08:37:47.683Z,83.44
2019-06-11T08:38:51.420Z,83.25
2019-06-11T08:40:14.453Z,83.06
2019-06-11T08:41:02.448Z,83.63
2019-06-11T08:42:07.975Z,82.76
2019-06-11T08:43:13.498Z,81.81
2019-06-11T08:44:20.886Z,81.96
2019-06-11T08:45:24.521Z,81.81
2019-06-11T08:46:31.173Z,81.61
2019-06-11T08:47:35.541Z,81.23
2019-06-11T08:48:44.414Z,81.13
2019-06-11T08:49:48.235Z,82.38
2019-06-11T08:50:53.148Z,81.81
2019-06-11T08:52:00.143Z,80.65
2019-06-11T08:53:03.126Z,80.65
2019-06-11T08:54:10.774Z,80.84
2019-06-11T08:55:14.172Z,80.94
2019-06-11T08:56:21.189Z,81.42
2019-06-11T08:57:25.186Z,82.48
2019-06-11T08:58:30.784Z,81.90
2019-06-11T08:59:41.590Z,81.71
2019-06-11T09:00:53.879Z,82.29
2019-06-11T09:01:48.759Z,82.52
2019-06-11T09:02:52.764Z,83.00
2019-06-11T09:04:00.594Z,82.52
2019-06-11T09:05:03.775Z,80.50
2019-06-11T09:06:13.408Z,80.69
2019-06-11T09:07:14.811Z,81.07
2019-06-11T09:08:20.458Z,80.69
2019-06-11T09:09:25.845Z,80.02
2019-06-11T09:10:34.617Z,79.63
2019-06-11T09:11:38.054Z,79.92
2019-06-11T09:12:43.962Z,80.21
2019-06-11T09:13:51.473Z,79.92
2019-06-11T09:14:54.004Z,78.28
2019-06-11T09:16:01.397Z,77.81
2019-06-11T09:17:04.444Z,78.58
2019-06-11T09:18:13.919Z,79.15
2019-06-11T09:19:15.511Z,79.92
2019-06-11T09:20:20.993Z,78.48
2019-06-11T09:21:26.512Z,78.28
2019-06-11T09:22:32.037Z,77.23
2019-06-11T09:23:37.562Z,77.23
2019-06-11T09:24:44.255Z,76.78
2019-06-11T09:25:53.113Z,75.79
2019-06-11T09:26:54.941Z,76.50
2019-06-11T09:28:00.119Z,75.73
2019-06-11T09:29:05.131Z,75.82
2019-06-11T09:30:13.517Z,76.59
2019-06-11T09:31:16.150Z,77.08
2019-06-11T09:32:21.675Z,75.24
2019-06-11T09:33:27.187Z,75.44
2019-06-11T09:34:32.702Z,75.82
2019-06-11T09:35:40.746Z,75.63
2019-06-11T09:36:45.551Z,74.67
2019-06-11T09:37:51.398Z,75.34
2019-06-11T09:38:54.805Z,75.54
2019-06-11T09:40:01.344Z,74.96
2019-06-11T09:41:05.960Z,75.24
2019-06-11T09:42:11.305Z,76.78
2019-06-11T09:43:16.830Z,76.25
2019-06-11T09:44:22.358Z,74.99
2019-06-11T09:45:27.844Z,76.82
2019-06-11T09:46:33.367Z,76.53
2019-06-11T09:47:46.286Z,75.48
2019-06-11T09:48:46.742Z,74.90
2019-06-11T09:49:54.288Z,77.11
2019-06-11T09:50:57.067Z,78.08
2019-06-11T09:52:01.455Z,76.53
2019-06-11T09:53:06.468Z,77.50
2019-06-11T09:54:11.983Z,76.34
2019-06-11T09:55:17.496Z,74.80
2019-06-11T09:56:23.012Z,74.51
2019-06-11T09:57:30.734Z,76.63
2019-06-11T09:58:34.043Z,77.15
2019-06-11T09:59:40.214Z,75.61
2019-06-11T10:00:45.616Z,74.74
2019-06-11T10:01:53.731Z,73.58
2019-06-11T10:02:56.104Z,73.49
2019-06-11T10:04:01.620Z,72.91
2019-06-11T10:05:07.140Z,72.81
2019-06-11T10:06:12.650Z,73.39
2019-06-11T10:07:18.177Z,73.30
2019-06-11T10:08:23.700Z,72.95
2019-06-11T10:09:30.027Z,72.75
2019-06-11T10:10:47.805Z,71.79
2019-06-11T10:11:47.648Z,71.41
2019-06-11T10:12:47.005Z,72.27
2019-06-11T10:13:55.632Z,71.31
2019-06-11T10:14:56.783Z,70.73
2019-06-11T10:16:03.562Z,70.64
2019-06-11T10:17:11.145Z,71.41
2019-06-11T10:18:13.342Z,72.08
2019-06-11T10:19:20.775Z,72.37
2019-06-11T10:20:24.360Z,72.47
2019-06-11T10:21:30.586Z,70.28
2019-06-11T10:22:35.400Z,69.61
2019-06-11T10:23:40.957Z,70.86
2019-06-11T10:24:46.951Z,70.09
2019-06-11T10:25:53.912Z,70.48
2019-06-11T10:26:57.465Z,69.32
2019-06-11T10:28:17.184Z,68.35
2019-06-11T10:29:10.629Z,67.78
2019-06-11T10:30:14.032Z,67.97
2019-06-11T10:31:20.811Z,67.68
2019-06-11T10:32:25.044Z,67.97
2019-06-11T10:33:34.444Z,69.42
2019-06-11T10:34:36.091Z,69.35
2019-06-11T10:35:41.596Z,69.26
2019-06-11T10:36:47.903Z,68.97
2019-06-11T10:37:54.382Z,70.51
2019-06-11T10:39:01.104Z,70.32
2019-06-11T10:40:03.658Z,69.26
2019-06-11T10:41:11.099Z,66.49
2019-06-11T10:42:14.699Z,64.63
2019-06-11T10:43:20.732Z,65.34
2019-06-11T10:44:25.724Z,66.30
2019-06-11T10:45:31.241Z,65.82
2019-06-11T10:46:36.765Z,63.21
2019-06-11T10:47:42.281Z,64.66
2019-06-11T10:48:49.427Z,65.14
2019-06-11T10:49:53.325Z,67.27
2019-06-11T10:51:00.810Z,67.75
2019-06-11T10:52:04.353Z,64.28
2019-06-11T10:53:11.179Z,63.31
2019-06-11T10:54:15.397Z,63.60
2019-06-11T10:55:20.900Z,63.79
2019-06-11T10:56:26.431Z,62.25
2019-06-11T10:57:31.931Z,63.02
2019-06-11T10:58:37.452Z,63.21
2019-06-11T10:59:42.965Z,61.96
2019-06-11T11:00:49.231Z,62.15
2019-06-11T11:01:56.824Z,61.09
2019-06-11T11:03:00.673Z,61.67
2019-06-11T11:04:05.031Z,61.47
2019-06-11T11:05:10.839Z,61.47
2019-06-11T11:06:16.069Z,63.02
2019-06-11T11:07:21.590Z,61.96
2019-06-11T11:08:27.099Z,61.86
2019-06-11T11:09:32.618Z,62.34
2019-06-11T11:10:40.519Z,62.25
2019-06-11T11:11:45.110Z,62.63
2019-06-11T11:12:51.944Z,62.95
2019-06-11T11:13:58.129Z,61.80
2019-06-11T11:15:01.148Z,61.89
2019-06-11T11:16:05.719Z,61.80
2019-06-11T11:17:11.340Z,62.37
2019-06-11T11:18:16.760Z,61.22
2019-06-11T11:19:22.273Z,60.73
2019-06-11T11:20:30.277Z,61.70
2019-06-11T11:21:33.345Z,61.41
2019-06-11T11:22:40.838Z,61.51
2019-06-11T11:23:45.574Z,60.35
2019-06-11T11:24:52.237Z,59.96
2019-06-11T11:25:58.717Z,60.44
2019-06-11T11:27:00.991Z,60.64
2019-06-11T11:28:18.928Z,61.22
2019-06-11T11:29:11.946Z,60.73
2019-06-11T11:30:17.476Z,61.31
2019-06-11T11:31:22.966Z,61.70
2019-06-11T11:32:28.484Z,60.28
2019-06-11T11:33:34.025Z,61.63
2019-06-11T11:34:39.519Z,61.25
2019-06-11T11:35:46.570Z,60.38
2019-06-11T11:36:54.155Z,60.47
2019-06-11T11:37:57.616Z,60.76
2019-06-11T11:39:01.603Z,62.31
2019-06-11T11:40:07.124Z,63.79
2019-06-11T11:41:12.618Z,64.37
2019-06-11T11:42:30.457Z,62.15
2019-06-11T11:43:23.657Z,61.47
2019-06-11T11:44:29.265Z,61.66
2019-06-11T11:45:34.694Z,62.53
2019-06-11T11:46:40.723Z,62.56
2019-06-11T11:47:46.952Z,61.89
2019-06-11T11:48:53.460Z,62.08
2019-06-11T11:49:57.280Z,61.11
2019-06-11T11:51:02.423Z,59.76
2019-06-11T11:52:10.106Z,60.57
2019-06-11T11:53:13.316Z,60.75
2019-06-11T11:54:20.026Z,59.98
2019-06-11T11:55:24.353Z,58.72
2019-06-11T11:56:30.912Z,59.01
2019-06-11T11:57:35.406Z,60.05
2019-06-11T11:58:42.047Z,59.86
2019-06-11T11:59:47.542Z,58.60
2019-06-11T12:00:54.509Z,59.56
2019-06-11T12:02:01.653Z,59.08
2019-06-11T12:03:04.971Z,59.95
2019-06-11T12:04:11.864Z,59.86
2019-06-11T12:05:14.016Z,59.38
2019-06-11T12:06:20.698Z,59.08
2019-06-11T12:07:25.053Z,59.18
2019-06-11T12:08:31.110Z,58.98
2019-06-11T12:09:36.087Z,59.08
2019-06-11T12:10:41.893Z,59.66
2019-06-11T12:11:47.507Z,57.51
2019-06-11T12:12:57.008Z,56.76
2019-06-11T12:13:59.824Z,57.82
2019-06-11T12:15:07.772Z,58.12
2019-06-11T12:16:18.223Z,58.40
2019-06-11T12:17:14.715Z,56.47
2019-06-11T12:18:21.125Z,56.18
2019-06-11T12:19:25.748Z,57.63
2019-06-11T12:20:31.763Z,57.54
2019-06-11T12:21:36.800Z,57.73
2019-06-11T12:22:42.301Z,57.05
2019-06-11T12:23:48.194Z,57.73
2019-06-11T12:24:57.953Z,57.63
2019-06-11T12:26:01.581Z,55.99
2019-06-11T12:27:04.395Z,54.73
2019-06-11T12:28:11.005Z,56.57
2019-06-11T12:29:15.415Z,56.21
2019-06-11T12:30:21.117Z,57.46
2019-06-11T12:31:26.458Z,57.66
2019-06-11T12:32:31.969Z,55.92
2019-06-11T12:33:37.498Z,55.51
2019-06-11T12:34:45.053Z,57.63
2019-06-11T12:35:51.354Z,57.05
2019-06-11T12:36:56.939Z,57.24
2019-06-11T12:38:01.768Z,57.34
2019-06-11T12:39:05.096Z,57.54
2019-06-11T12:40:11.513Z,55.02
2019-06-11T12:41:16.126Z,55.41
2019-06-11T12:42:21.699Z,57.63
2019-06-11T12:43:35.787Z,57.34
2019-06-11T12:44:32.669Z,57.54
2019-06-11T12:45:38.194Z,57.15
2019-06-11T12:46:43.709Z,56.28
2019-06-11T12:47:49.592Z,57.15
2019-06-11T12:48:58.979Z,57.24
2019-06-11T12:50:03.504Z,55.41
2019-06-11T12:51:10.926Z,55.60
2019-06-11T12:52:11.345Z,55.02
2019-06-11T12:53:16.821Z,55.60
2019-06-11T12:54:22.353Z,54.35
2019-06-11T12:55:29.878Z,54.44
2019-06-11T12:56:33.396Z,55.11
2019-06-11T12:57:43.030Z,55.79
2019-06-11T12:58:44.397Z,55.41
2019-06-11T12:59:51.176Z,56.37
2019-06-11T13:00:55.515Z,60.92
2019-06-11T13:02:00.974Z,60.05
2019-06-11T13:03:06.572Z,59.47
2019-06-11T13:04:12.089Z,58.50
2019-06-11T13:05:18.138Z,59.18
2019-06-11T13:06:23.043Z,58.60
2019-06-11T13:07:32.166Z,58.12
2019-06-11T13:08:34.080Z,59.18
2019-06-11T13:09:40.399Z,59.25
2019-06-11T13:10:45.141Z,59.63
2019-06-11T13:11:53.236Z,61.60
2019-06-11T13:12:57.088Z,61.30
2019-06-11T13:14:03.953Z,60.53
2019-06-11T13:15:11.440Z,60.82
2019-06-11T13:16:12.713Z,58.31
2019-06-11T13:17:21.096Z,55.79
2019-06-11T13:18:23.732Z,54.93
2019-06-11T13:19:30.589Z,55.31
2019-06-11T13:20:34.780Z,56.37
2019-06-11T13:21:41.195Z,54.22
2019-06-11T13:22:45.817Z,56.05
2019-06-11T13:23:53.880Z,55.87
2019-06-11T13:24:57.815Z,56.09
2019-06-11T13:26:03.926Z,54.93
2019-06-11T13:27:07.892Z,55.89
2019-06-11T13:28:13.413Z,55.77
2019-06-11T13:29:21.179Z,56.57
2019-06-11T13:30:24.445Z,55.11
2019-06-11T13:31:29.957Z,53.96
2019-06-11T13:32:35.477Z,55.11
2019-06-11T13:33:41.374Z,55.11
2019-06-11T13:34:46.525Z,54.83
2019-06-11T13:35:52.041Z,55.89
2019-06-11T13:36:58.074Z,57.73
2019-06-11T13:38:12.869Z,56.76
2019-06-11T13:39:11.146Z,56.47
2019-06-11T13:40:14.194Z,56.28
2019-06-11T13:41:21.159Z,57.44
2019-06-11T13:42:25.154Z,56.67
2019-06-11T13:43:32.510Z,55.99
2019-06-11T13:44:39.596Z,56.47
2019-06-11T13:45:41.773Z,56.18
2019-06-11T13:46:47.229Z,55.51
2019-06-11T13:47:53.147Z,55.70
2019-06-11T13:49:03.289Z,54.93
2019-06-11T13:50:07.594Z,54.83
2019-06-11T13:51:11.540Z,54.35
2019-06-11T13:52:14.812Z,54.35
2019-06-11T13:53:21.270Z,55.11
2019-06-11T13:54:25.848Z,55.02
2019-06-11T13:55:31.490Z,55.02
2019-06-11T13:56:36.891Z,55.02
2019-06-11T13:57:42.545Z,55.02
2019-06-11T13:58:47.934Z,55.02
2019-06-11T13:59:54.313Z,54.83
2019-06-11T14:01:02.271Z,54.35
2019-06-11T14:02:07.610Z,54.35
2019-06-11T14:03:14.073Z,55.11
2019-06-11T14:04:15.514Z,57.63
2019-06-11T14:05:22.056Z,57.44
2019-06-11T14:06:26.547Z,56.57
2019-06-11T14:07:33.660Z,56.18
2019-06-11T14:08:40.629Z,57.24